Slatington, Pennsylvania
Current Conditions -  °F | °C
As of 2:51 AM on Friday 28 Nov 2014 (Local Time) from KABE Reporting Station
Broken Clouds Broken Clouds  
Wind Chill: 28°   Ceiling: 6500
Heat Index: 28°   Visibility: 10mi
Dew Point: 23°   Wind: 3mph
Humidity: 81%   Direction: 230°SW
Pressure: 30.1"   Gusts: NA
Location:  40.75°N, 75.61°W
Report Text: KABE 280751Z 23003KT 10SM BKN065 M02/M05 A3010 RMK AO2 SNE21 SLP197 P0000 T10221050 $
Loading
Personal Weather Stations






























Interactive Weather Map New forecast layout! Learn more

10-Day Weather Forecast

Advertisements
Track Severe Weather on mobile